sensor_id;sensor_type;location;lat;lon;timestamp;pressure;altitude;pressure_sealevel;temperature;humidity
5550;BME280;2798;42.716;23.256;2022-11-04T00:01:23;94866.72;;;16.00;61.05
5550;BME280;2798;42.716;23.256;2022-11-04T00:03:49;94840.38;;;15.85;61.01
5550;BME280;2798;42.716;23.256;2022-11-04T00:06:14;94868.50;;;16.00;61.05
5550;BME280;2798;42.716;23.256;2022-11-04T00:08:39;94877.09;;;16.00;60.89
5550;BME280;2798;42.716;23.256;2022-11-04T00:11:05;94860.41;;;15.93;61.08
5550;BME280;2798;42.716;23.256;2022-11-04T00:13:49;94863.16;;;15.91;61.20
5550;BME280;2798;42.716;23.256;2022-11-04T00:16:15;94865.75;;;15.91;61.27
5550;BME280;2798;42.716;23.256;2022-11-04T00:18:59;94852.94;;;15.80;61.45
5550;BME280;2798;42.716;23.256;2022-11-04T00:21:25;94860.03;;;15.88;61.36
5550;BME280;2798;42.716;23.256;2022-11-04T00:24:13;94861.56;;;15.80;61.53
5550;BME280;2798;42.716;23.256;2022-11-04T00:26:58;94869.19;;;15.82;61.17
5550;BME280;2798;42.716;23.256;2022-11-04T00:29:42;94857.34;;;15.79;61.61
5550;BME280;2798;42.716;23.256;2022-11-04T00:32:07;94853.09;;;15.78;61.60
5550;BME280;2798;42.716;23.256;2022-11-04T00:34:52;94858.56;;;15.75;61.75
5550;BME280;2798;42.716;23.256;2022-11-04T00:37:17;94847.38;;;15.75;61.61
5550;BME280;2798;42.716;23.256;2022-11-04T00:39:42;94852.41;;;15.76;61.69
5550;BME280;2798;42.716;23.256;2022-11-04T00:42:08;94852.28;;;15.68;61.63
5550;BME280;2798;42.716;23.256;2022-11-04T00:44:33;94853.00;;;15.70;61.89
5550;BME280;2798;42.716;23.256;2022-11-04T00:46:59;94857.78;;;15.65;61.71
5550;BME280;2798;42.716;23.256;2022-11-04T00:49:24;94838.50;;;15.67;61.72
5550;BME280;2798;42.716;23.256;2022-11-04T00:51:50;94828.28;;;15.56;61.90
5550;BME280;2798;42.716;23.256;2022-11-04T00:54:15;94813.16;;;15.41;61.89
5550;BME280;2798;42.716;23.256;2022-11-04T00:56:40;94835.34;;;15.64;61.96
5550;BME280;2798;42.716;23.256;2022-11-04T00:59:06;94832.09;;;15.62;62.12
5550;BME280;2798;42.716;23.256;2022-11-04T01:01:32;94841.09;;;15.57;61.94
5550;BME280;2798;42.716;23.256;2022-11-04T01:03:58;94838.38;;;15.59;62.13
5550;BME280;2798;42.716;23.256;2022-11-04T01:06:25;94840.31;;;15.57;62.23
5550;BME280;2798;42.716;23.256;2022-11-04T01:08:59;94828.41;;;15.54;62.04
5550;BME280;2798;42.716;23.256;2022-11-04T01:11:26;94823.22;;;15.54;62.25
5550;BME280;2798;42.716;23.256;2022-11-04T01:13:56;94823.66;;;15.50;61.90
5550;BME280;2798;42.716;23.256;2022-11-04T01:16:23;94824.63;;;15.49;62.32
5550;BME280;2798;42.716;23.256;2022-11-04T01:18:49;94825.56;;;15.48;62.35
5550;BME280;2798;42.716;23.256;2022-11-04T01:21:16;94806.88;;;15.44;62.19
5550;BME280;2798;42.716;23.256;2022-11-04T01:23:43;94805.91;;;15.45;62.24
5550;BME280;2798;42.716;23.256;2022-11-04T01:26:14;94810.56;;;15.41;62.65
5550;BME280;2798;42.716;23.256;2022-11-04T01:28:40;94807.31;;;15.39;62.71
5550;BME280;2798;42.716;23.256;2022-11-04T01:31:11;94809.22;;;15.37;62.53
5550;BME280;2798;42.716;23.256;2022-11-04T01:33:37;94808.38;;;15.37;62.80
5550;BME280;2798;42.716;23.256;2022-11-04T01:36:04;94803.34;;;15.35;62.85
5550;BME280;2798;42.716;23.256;2022-11-04T01:38:30;94806.91;;;15.34;62.64
5550;BME280;2798;42.716;23.256;2022-11-04T01:40:56;94828.63;;;15.33;62.73
5550;BME280;2798;42.716;23.256;2022-11-04T01:46:12;94802.56;;;15.25;62.90
5550;BME280;2798;42.716;23.256;2022-11-04T01:48:40;94802.28;;;15.28;62.96
5550;BME280;2798;42.716;23.256;2022-11-04T01:51:06;94787.41;;;15.20;62.97
5550;BME280;2798;42.716;23.256;2022-11-04T01:53:36;94804.31;;;15.24;63.22
5550;BME280;2798;42.716;23.256;2022-11-04T01:56:08;94798.84;;;15.17;63.15
5550;BME280;2798;42.716;23.256;2022-11-04T01:58:42;94796.13;;;15.19;63.31
5550;BME280;2798;42.716;23.256;2022-11-04T02:01:10;94797.09;;;15.18;63.37
5550;BME280;2798;42.716;23.256;2022-11-04T02:03:58;94795.59;;;15.15;63.23
5550;BME280;2798;42.716;23.256;2022-11-04T02:06:47;94788.22;;;15.11;63.50
5550;BME280;2798;42.716;23.256;2022-11-04T02:09:13;94787.16;;;15.13;63.35
5550;BME280;2798;42.716;23.256;2022-11-04T02:11:39;94786.44;;;15.11;63.71
5550;BME280;2798;42.716;23.256;2022-11-04T02:14:24;94791.63;;;15.11;63.58
5550;BME280;2798;42.716;23.256;2022-11-04T02:16:52;94788.34;;;15.09;63.51
5550;BME280;2798;42.716;23.256;2022-11-04T02:30:09;94757.00;;;14.92;63.72
5550;BME280;2798;42.716;23.256;2022-11-04T02:40:30;94775.81;;;14.94;63.98
5550;BME280;2798;42.716;23.256;2022-11-04T02:42:59;94771.59;;;14.93;63.87
5550;BME280;2798;42.716;23.256;2022-11-04T02:45:37;94771.75;;;14.92;63.84
5550;BME280;2798;42.716;23.256;2022-11-04T02:48:11;94777.88;;;14.91;64.18
5550;BME280;2798;42.716;23.256;2022-11-04T02:50:54;94768.72;;;14.87;64.17
5550;BME280;2798;42.716;23.256;2022-11-04T02:53:28;94770.53;;;14.86;64.41
5550;BME280;2798;42.716;23.256;2022-11-04T02:55:57;94774.88;;;14.86;63.97
5550;BME280;2798;42.716;23.256;2022-11-04T02:58:35;94779.38;;;14.83;64.14
5550;BME280;2798;42.716;23.256;2022-11-04T03:01:03;94774.47;;;14.80;64.64
5550;BME280;2798;42.716;23.256;2022-11-04T03:03:37;94771.16;;;14.78;64.47
5550;BME280;2798;42.716;23.256;2022-11-04T03:06:05;94759.72;;;14.71;64.27
5550;BME280;2798;42.716;23.256;2022-11-04T03:08:37;94773.75;;;14.78;64.19
5550;BME280;2798;42.716;23.256;2022-11-04T03:11:12;94759.84;;;14.69;64.03
5550;BME280;2798;42.716;23.256;2022-11-04T03:13:52;94747.31;;;14.65;64.81
5550;BME280;2798;42.716;23.256;2022-11-04T03:16:46;94756.97;;;14.73;64.73
5550;BME280;2798;42.716;23.256;2022-11-04T03:22:06;94769.38;;;14.69;64.74
5550;BME280;2798;42.716;23.256;2022-11-04T03:24:34;94766.41;;;14.64;65.02
5550;BME280;2798;42.716;23.256;2022-11-04T03:27:45;94768.03;;;14.65;64.82
5550;BME280;2798;42.716;23.256;2022-11-04T03:30:00;94763.38;;;14.58;64.76
5550;BME280;2798;42.716;23.256;2022-11-04T03:32:46;94765.72;;;14.62;64.88
5550;BME280;2798;42.716;23.256;2022-11-04T03:35:15;94773.63;;;14.60;65.07
5550;BME280;2798;42.716;23.256;2022-11-04T03:37:42;94776.34;;;14.58;65.27
5550;BME280;2798;42.716;23.256;2022-11-04T03:40:08;94766.38;;;14.54;65.07
5550;BME280;2798;42.716;23.256;2022-11-04T03:42:40;94750.56;;;14.47;65.24
5550;BME280;2798;42.716;23.256;2022-11-04T03:45:08;94775.22;;;14.51;65.14
5550;BME280;2798;42.716;23.256;2022-11-04T03:47:35;94751.53;;;14.46;65.14
5550;BME280;2798;42.716;23.256;2022-11-04T03:52:29;94764.06;;;14.51;65.31
5550;BME280;2798;42.716;23.256;2022-11-04T03:54:55;94759.03;;;14.49;65.63
5550;BME280;2798;42.716;23.256;2022-11-04T03:57:35;94759.81;;;14.50;65.61
5550;BME280;2798;42.716;23.256;2022-11-04T04:00:13;94756.56;;;14.48;65.20
5550;BME280;2798;42.716;23.256;2022-11-04T04:03:12;94753.16;;;14.47;65.39
5550;BME280;2798;42.716;23.256;2022-11-04T04:06:08;94760.22;;;14.45;65.55
5550;BME280;2798;42.716;23.256;2022-11-04T04:08:38;94760.38;;;14.43;65.85
5550;BME280;2798;42.716;23.256;2022-11-04T04:13:57;94764.19;;;14.39;65.91
5550;BME280;2798;42.716;23.256;2022-11-04T04:16:46;94761.03;;;14.36;66.00
5550;BME280;2798;42.716;23.256;2022-11-04T04:19:30;94755.03;;;14.35;66.16
5550;BME280;2798;42.716;23.256;2022-11-04T04:22:11;94742.06;;;14.25;66.18
5550;BME280;2798;42.716;23.256;2022-11-04T04:24:41;94756.97;;;14.33;65.86
5550;BME280;2798;42.716;23.256;2022-11-04T04:27:27;94751.91;;;14.31;65.90
5550;BME280;2798;42.716;23.256;2022-11-04T04:30:06;94755.44;;;14.30;66.16
5550;BME280;2798;42.716;23.256;2022-11-04T04:32:36;94751.50;;;14.26;65.92
5550;BME280;2798;42.716;23.256;2022-11-04T04:35:05;94744.38;;;14.28;66.21
5550;BME280;2798;42.716;23.256;2022-11-04T04:38:02;94754.88;;;14.27;66.02
5550;BME280;2798;42.716;23.256;2022-11-04T04:40:59;94746.44;;;14.25;65.98
5550;BME280;2798;42.716;23.256;2022-11-04T04:43:44;94746.84;;;14.20;66.37
5550;BME280;2798;42.716;23.256;2022-11-04T04:46:29;94751.91;;;14.21;66.43
5550;BME280;2798;42.716;23.256;2022-11-04T04:49:03;94756.38;;;14.19;66.67
5550;BME280;2798;42.716;23.256;2022-11-04T04:51:28;94740.13;;;14.07;66.39
5550;BME280;2798;42.716;23.256;2022-11-04T04:53:54;94754.06;;;14.16;66.41
5550;BME280;2798;42.716;23.256;2022-11-04T04:56:20;94750.66;;;14.16;66.20
5550;BME280;2798;42.716;23.256;2022-11-04T04:58:45;94757.47;;;14.17;66.23
5550;BME280;2798;42.716;23.256;2022-11-04T05:01:11;94755.81;;;14.16;66.37
5550;BME280;2798;42.716;23.256;2022-11-04T05:03:36;94761.00;;;14.16;66.44
5550;BME280;2798;42.716;23.256;2022-11-04T05:06:01;94765.63;;;14.12;66.48
5550;BME280;2798;42.716;23.256;2022-11-04T05:08:27;94759.50;;;14.13;66.19
5550;BME280;2798;42.716;23.256;2022-11-04T05:10:52;94761.13;;;14.14;66.65
5550;BME280;2798;42.716;23.256;2022-11-04T05:13:17;94741.22;;;14.05;66.42
5550;BME280;2798;42.716;23.256;2022-11-04T05:16:05;94760.19;;;14.15;65.99
5550;BME280;2798;42.716;23.256;2022-11-04T05:18:30;94757.59;;;14.15;66.33
5550;BME280;2798;42.716;23.256;2022-11-04T05:20:56;94759.22;;;14.16;66.39
5550;BME280;2798;42.716;23.256;2022-11-04T05:23:21;94767.13;;;14.15;66.21
5550;BME280;2798;42.716;23.256;2022-11-04T05:25:47;94768.63;;;14.17;66.47
5550;BME280;2798;42.716;23.256;2022-11-04T05:28:12;94750.63;;;14.06;66.54
5550;BME280;2798;42.716;23.256;2022-11-04T05:30:38;94769.59;;;14.16;66.64
5550;BME280;2798;42.716;23.256;2022-11-04T05:33:04;94772.03;;;14.18;66.33
5550;BME280;2798;42.716;23.256;2022-11-04T05:35:29;94779.94;;;14.16;66.42
5550;BME280;2798;42.716;23.256;2022-11-04T05:37:55;94779.66;;;14.19;66.47
5550;BME280;2798;42.716;23.256;2022-11-04T05:40:21;94785.25;;;14.15;66.74
5550;BME280;2798;42.716;23.256;2022-11-04T05:42:46;94787.03;;;14.24;67.00
5550;BME280;2798;42.716;23.256;2022-11-04T05:45:12;94782.81;;;14.23;67.19
5550;BME280;2798;42.716;23.256;2022-11-04T05:47:37;94788.41;;;14.28;67.08
5550;BME280;2798;42.716;23.256;2022-11-04T05:50:03;94793.47;;;14.30;67.22
5550;BME280;2798;42.716;23.256;2022-11-04T05:52:28;94790.75;;;14.31;66.76
5550;BME280;2798;42.716;23.256;2022-11-04T05:54:54;94790.63;;;14.33;66.74
5550;BME280;2798;42.716;23.256;2022-11-04T05:57:19;94787.88;;;14.34;67.01
5550;BME280;2798;42.716;23.256;2022-11-04T05:59:45;94791.53;;;14.32;66.85
5550;BME280;2798;42.716;23.256;2022-11-04T06:02:10;94799.59;;;14.39;67.09
5550;BME280;2798;42.716;23.256;2022-11-04T06:04:36;94797.28;;;14.36;67.28
5550;BME280;2798;42.716;23.256;2022-11-04T06:07:02;94794.28;;;14.40;66.97
5550;BME280;2798;42.716;23.256;2022-11-04T06:09:28;94794.84;;;14.44;66.75
5550;BME280;2798;42.716;23.256;2022-11-04T06:12:09;94801.25;;;14.50;67.23
5550;BME280;2798;42.716;23.256;2022-11-04T06:14:35;94782.47;;;14.48;67.19
5550;BME280;2798;42.716;23.256;2022-11-04T06:17:01;94799.09;;;14.65;67.05
5550;BME280;2798;42.716;23.256;2022-11-04T06:19:26;94802.13;;;14.70;67.56
5550;BME280;2798;42.716;23.256;2022-11-04T06:21:52;94797.88;;;14.69;68.41
5550;BME280;2798;42.716;23.256;2022-11-04T06:24:17;94798.16;;;14.76;68.60
5550;BME280;2798;42.716;23.256;2022-11-04T06:26:42;94802.97;;;14.80;68.95
5550;BME280;2798;42.716;23.256;2022-11-04T06:29:08;94814.72;;;14.85;69.10
5550;BME280;2798;42.716;23.256;2022-11-04T06:31:34;94806.78;;;14.86;69.16
5550;BME280;2798;42.716;23.256;2022-11-04T06:34:00;94804.72;;;14.90;68.96
5550;BME280;2798;42.716;23.256;2022-11-04T06:36:25;94805.28;;;14.93;68.70
5550;BME280;2798;42.716;23.256;2022-11-04T06:38:50;94805.97;;;14.95;68.84
5550;BME280;2798;42.716;23.256;2022-11-04T06:41:17;94804.47;;;15.03;68.79
5550;BME280;2798;42.716;23.256;2022-11-04T06:43:43;94814.56;;;15.06;68.18
5550;BME280;2798;42.716;23.256;2022-11-04T06:46:33;94809.66;;;15.13;68.55
5550;BME280;2798;42.716;23.256;2022-11-04T06:49:00;94813.88;;;15.14;68.56
5550;BME280;2798;42.716;23.256;2022-11-04T06:51:26;94809.22;;;15.17;68.42
5550;BME280;2798;42.716;23.256;2022-11-04T06:53:51;94814.56;;;15.26;68.54
5550;BME280;2798;42.716;23.256;2022-11-04T06:56:17;94812.66;;;15.28;68.52
5550;BME280;2798;42.716;23.256;2022-11-04T06:58:43;94806.22;;;15.32;67.83
5550;BME280;2798;42.716;23.256;2022-11-04T07:01:11;94801.56;;;15.36;67.93
5550;BME280;2798;42.716;23.256;2022-11-04T07:03:36;94807.31;;;15.39;68.09
5550;BME280;2798;42.716;23.256;2022-11-04T07:06:06;94798.56;;;15.40;68.18
5550;BME280;2798;42.716;23.256;2022-11-04T07:08:32;94797.84;;;15.48;68.48
5550;BME280;2798;42.716;23.256;2022-11-04T07:10:58;94753.81;;;15.28;68.02
5550;BME280;2798;42.716;23.256;2022-11-04T07:13:23;94787.59;;;15.56;68.42
5550;BME280;2798;42.716;23.256;2022-11-04T07:15:49;94780.50;;;15.59;68.43
5550;BME280;2798;42.716;23.256;2022-11-04T07:18:14;94790.31;;;15.65;67.86
5550;BME280;2798;42.716;23.256;2022-11-04T07:20:39;94789.22;;;15.67;68.07
5550;BME280;2798;42.716;23.256;2022-11-04T07:23:05;94785.38;;;15.72;67.99
5550;BME280;2798;42.716;23.256;2022-11-04T07:25:30;94781.53;;;15.76;67.89
5550;BME280;2798;42.716;23.256;2022-11-04T07:27:56;94782.09;;;15.79;67.92
5550;BME280;2798;42.716;23.256;2022-11-04T07:30:21;94776.47;;;15.84;68.03
5550;BME280;2798;42.716;23.256;2022-11-04T07:32:47;94767.41;;;15.88;67.98
5550;BME280;2798;42.716;23.256;2022-11-04T07:35:13;94775.59;;;15.93;67.83
5550;BME280;2798;42.716;23.256;2022-11-04T07:37:39;94766.69;;;15.96;68.17
5550;BME280;2798;42.716;23.256;2022-11-04T07:40:05;94761.25;;;15.99;67.93
5550;BME280;2798;42.716;23.256;2022-11-04T07:42:30;94764.09;;;16.06;67.56
5550;BME280;2798;42.716;23.256;2022-11-04T07:44:56;94762.03;;;16.10;67.68
5550;BME280;2798;42.716;23.256;2022-11-04T07:47:21;94749.63;;;16.03;67.53
5550;BME280;2798;42.716;23.256;2022-11-04T07:49:47;94761.31;;;16.17;67.63
5550;BME280;2798;42.716;23.256;2022-11-04T07:52:12;94759.25;;;16.21;67.48
5550;BME280;2798;42.716;23.256;2022-11-04T07:54:38;94754.44;;;16.26;67.20
5550;BME280;2798;42.716;23.256;2022-11-04T07:57:03;94766.97;;;16.31;67.44
5550;BME280;2798;42.716;23.256;2022-11-04T07:59:29;94753.03;;;16.32;66.95
5550;BME280;2798;42.716;23.256;2022-11-04T08:01:54;94757.78;;;16.37;67.10
5550;BME280;2798;42.716;23.256;2022-11-04T08:04:20;94747.75;;;16.42;66.94
5550;BME280;2798;42.716;23.256;2022-11-04T08:06:45;94738.34;;;16.41;66.63
5550;BME280;2798;42.716;23.256;2022-11-04T08:09:11;94742.66;;;16.50;66.46
5550;BME280;2798;42.716;23.256;2022-11-04T08:11:36;94748.22;;;16.55;66.44
5550;BME280;2798;42.716;23.256;2022-11-04T08:14:03;94729.22;;;16.55;66.49
5550;BME280;2798;42.716;23.256;2022-11-04T08:16:28;94733.22;;;16.67;66.32
5550;BME280;2798;42.716;23.256;2022-11-04T08:18:54;94727.72;;;16.71;66.24
5550;BME280;2798;42.716;23.256;2022-11-04T08:21:26;94735.75;;;16.77;65.99
5550;BME280;2798;42.716;23.256;2022-11-04T08:23:51;94734.63;;;16.80;66.17
5550;BME280;2798;42.716;23.256;2022-11-04T08:26:18;94718.06;;;16.81;65.63
5550;BME280;2798;42.716;23.256;2022-11-04T08:28:44;94720.59;;;16.91;65.78
5550;BME280;2798;42.716;23.256;2022-11-04T08:31:13;94714.13;;;16.95;65.50
5550;BME280;2798;42.716;23.256;2022-11-04T08:33:39;94717.09;;;17.00;65.41
5550;BME280;2798;42.716;23.256;2022-11-04T08:36:13;94706.22;;;17.05;65.28
5550;BME280;2798;42.716;23.256;2022-11-04T08:38:39;94692.94;;;17.08;65.24
5550;BME280;2798;42.716;23.256;2022-11-04T08:41:06;94699.16;;;17.15;65.32
5550;BME280;2798;42.716;23.256;2022-11-04T08:43:32;94697.22;;;17.17;65.15
5550;BME280;2798;42.716;23.256;2022-11-04T08:45:59;94703.47;;;17.25;64.89
5550;BME280;2798;42.716;23.256;2022-11-04T08:48:26;94703.00;;;17.29;64.67
5550;BME280;2798;42.716;23.256;2022-11-04T08:50:53;94706.59;;;17.37;64.70
5550;BME280;2798;42.716;23.256;2022-11-04T08:53:20;94695.88;;;17.40;64.43
5550;BME280;2798;42.716;23.256;2022-11-04T08:55:46;94666.38;;;17.23;64.13
5550;BME280;2798;42.716;23.256;2022-11-04T08:58:12;94699.84;;;17.44;64.22
5550;BME280;2798;42.716;23.256;2022-11-04T09:00:37;94697.59;;;17.58;63.93
5550;BME280;2798;42.716;23.256;2022-11-04T09:03:03;94691.63;;;17.65;63.62
5550;BME280;2798;42.716;23.256;2022-11-04T09:05:29;94672.59;;;17.65;63.53
5550;BME280;2798;42.716;23.256;2022-11-04T09:07:55;94682.75;;;17.76;63.57
5550;BME280;2798;42.716;23.256;2022-11-04T09:10:21;94679.34;;;17.84;63.23
5550;BME280;2798;42.716;23.256;2022-11-04T09:12:46;94683.59;;;17.94;62.74
5550;BME280;2798;42.716;23.256;2022-11-04T09:15:12;94675.16;;;18.00;62.97
5550;BME280;2798;42.716;23.256;2022-11-04T09:17:37;94666.38;;;18.09;62.61
5550;BME280;2798;42.716;23.256;2022-11-04T09:20:04;94655.47;;;17.97;62.39
5550;BME280;2798;42.716;23.256;2022-11-04T09:22:30;94665.78;;;18.24;62.30
5550;BME280;2798;42.716;23.256;2022-11-04T09:24:56;94657.31;;;18.30;62.02
5550;BME280;2798;42.716;23.256;2022-11-04T09:27:21;94661.88;;;18.36;61.89
5550;BME280;2798;42.716;23.256;2022-11-04T09:29:46;94661.28;;;18.43;61.75
5550;BME280;2798;42.716;23.256;2022-11-04T09:32:12;94656.84;;;18.51;61.53
5550;BME280;2798;42.716;23.256;2022-11-04T09:34:37;94649.38;;;18.57;61.36
5550;BME280;2798;42.716;23.256;2022-11-04T09:37:03;94641.41;;;18.58;61.07
5550;BME280;2798;42.716;23.256;2022-11-04T09:39:28;94635.84;;;18.61;60.93
5550;BME280;2798;42.716;23.256;2022-11-04T09:41:59;94633.09;;;18.71;60.94
5550;BME280;2798;42.716;23.256;2022-11-04T09:47:07;94628.66;;;18.88;60.55
5550;BME280;2798;42.716;23.256;2022-11-04T09:49:35;94621.97;;;18.94;60.15
5550;BME280;2798;42.716;23.256;2022-11-04T09:52:07;94618.03;;;19.07;60.12
5550;BME280;2798;42.716;23.256;2022-11-04T09:57:28;94602.50;;;19.22;59.37
5550;BME280;2798;42.716;23.256;2022-11-04T09:59:54;94597.28;;;19.30;58.86
5550;BME280;2798;42.716;23.256;2022-11-04T10:08:27;94580.16;;;19.36;58.47
5550;BME280;2798;42.716;23.256;2022-11-04T10:14:06;94577.63;;;19.51;57.95
5550;BME280;2798;42.716;23.256;2022-11-04T10:24:46;94559.66;;;19.56;57.78
5550;BME280;2798;42.716;23.256;2022-11-04T10:27:34;94563.25;;;19.55;57.46
5550;BME280;2798;42.716;23.256;2022-11-04T10:30:06;94554.59;;;19.55;57.54
5550;BME280;2798;42.716;23.256;2022-11-04T10:33:03;94536.97;;;19.57;57.67
5550;BME280;2798;42.716;23.256;2022-11-04T10:37:57;94526.81;;;19.62;57.50
5550;BME280;2798;42.716;23.256;2022-11-04T10:40:29;94512.16;;;19.61;57.30
5550;BME280;2798;42.716;23.256;2022-11-04T10:43:03;94516.06;;;19.65;57.06
5550;BME280;2798;42.716;23.256;2022-11-04T10:45:38;94508.41;;;19.63;57.06
5550;BME280;2798;42.716;23.256;2022-11-04T10:48:10;94496.78;;;19.66;57.14
5550;BME280;2798;42.716;23.256;2022-11-04T10:50:45;94493.13;;;19.75;57.03
5550;BME280;2798;42.716;23.256;2022-11-04T10:53:22;94493.78;;;19.77;56.60
5550;BME280;2798;42.716;23.256;2022-11-04T10:58:43;94487.19;;;19.82;56.39
5550;BME280;2798;42.716;23.256;2022-11-04T11:01:30;94474.97;;;19.82;56.77
5550;BME280;2798;42.716;23.256;2022-11-04T11:03:56;94459.00;;;19.77;56.24
5550;BME280;2798;42.716;23.256;2022-11-04T11:06:28;94459.13;;;19.84;56.32
5550;BME280;2798;42.716;23.256;2022-11-04T11:09:00;94469.41;;;19.85;56.17
5550;BME280;2798;42.716;23.256;2022-11-04T11:11:48;94455.16;;;19.88;56.15
5550;BME280;2798;42.716;23.256;2022-11-04T11:14:35;94451.41;;;19.91;56.18
5550;BME280;2798;42.716;23.256;2022-11-04T11:19:57;94444.28;;;19.99;55.98
5550;BME280;2798;42.716;23.256;2022-11-04T11:22:41;94431.88;;;20.01;55.96
5550;BME280;2798;42.716;23.256;2022-11-04T11:27:38;94416.06;;;20.03;55.57
5550;BME280;2798;42.716;23.256;2022-11-04T11:30:04;94403.47;;;20.07;55.35
5550;BME280;2798;42.716;23.256;2022-11-04T11:32:32;94400.50;;;20.10;55.22
5550;BME280;2798;42.716;23.256;2022-11-04T11:34:59;94397.88;;;20.10;55.03
5550;BME280;2798;42.716;23.256;2022-11-04T11:37:27;94389.75;;;20.05;55.10
5550;BME280;2798;42.716;23.256;2022-11-04T11:39:55;94396.88;;;20.11;54.99
5550;BME280;2798;42.716;23.256;2022-11-04T11:42:22;94384.06;;;20.01;54.94
5550;BME280;2798;42.716;23.256;2022-11-04T11:44:52;94386.72;;;20.16;54.63
5550;BME280;2798;42.716;23.256;2022-11-04T11:47:34;94382.63;;;20.13;54.72
5550;BME280;2798;42.716;23.256;2022-11-04T11:52:40;94387.72;;;20.15;54.47
5550;BME280;2798;42.716;23.256;2022-11-04T11:57:51;94371.13;;;20.23;54.44
5550;BME280;2798;42.716;23.256;2022-11-04T12:00:20;94376.59;;;20.28;54.37
5550;BME280;2798;42.716;23.256;2022-11-04T12:11:59;94361.38;;;20.32;54.36
5550;BME280;2798;42.716;23.256;2022-11-04T12:14:03;94357.53;;;20.28;54.15
5550;BME280;2798;42.716;23.256;2022-11-04T12:19:36;94362.28;;;20.24;54.45
5550;BME280;2798;42.716;23.256;2022-11-04T12:27:29;94351.47;;;20.27;54.58
5550;BME280;2798;42.716;23.256;2022-11-04T12:44:01;94348.50;;;20.45;54.16
5550;BME280;2798;42.716;23.256;2022-11-04T12:49:33;94327.69;;;20.52;53.76
5550;BME280;2798;42.716;23.256;2022-11-04T12:52:14;94328.47;;;20.53;53.57
5550;BME280;2798;42.716;23.256;2022-11-04T12:57:34;94328.47;;;20.53;53.55
5550;BME280;2798;42.716;23.256;2022-11-04T13:00:08;94322.97;;;20.47;53.48
5550;BME280;2798;42.716;23.256;2022-11-04T13:05:40;94322.38;;;20.45;53.47
5550;BME280;2798;42.716;23.256;2022-11-04T13:10:52;94322.47;;;20.37;53.33
5550;BME280;2798;42.716;23.256;2022-11-04T13:13:25;94326.44;;;20.33;53.40
5550;BME280;2798;42.716;23.256;2022-11-04T13:15:56;94328.78;;;20.28;53.68
5550;BME280;2798;42.716;23.256;2022-11-04T13:18:25;94331.59;;;20.26;53.57
5550;BME280;2798;42.716;23.256;2022-11-04T13:20:58;94329.50;;;20.21;53.65
5550;BME280;2798;42.716;23.256;2022-11-04T13:23:31;94329.88;;;20.18;53.80
5550;BME280;2798;42.716;23.256;2022-11-04T13:26:00;94331.66;;;20.18;53.71
5550;BME280;2798;42.716;23.256;2022-11-04T13:28:27;94329.25;;;20.16;53.59
5550;BME280;2798;42.716;23.256;2022-11-04T13:34:10;94326.53;;;20.24;53.68
5550;BME280;2798;42.716;23.256;2022-11-04T13:39:26;94313.47;;;20.24;53.68
5550;BME280;2798;42.716;23.256;2022-11-04T13:42:55;94321.50;;;20.23;53.58
5550;BME280;2798;42.716;23.256;2022-11-04T13:45:12;94321.03;;;20.19;53.67
5550;BME280;2798;42.716;23.256;2022-11-04T13:47:54;94317.00;;;20.17;53.77
5550;BME280;2798;42.716;23.256;2022-11-04T13:50:36;94315.72;;;20.12;53.61
5550;BME280;2798;42.716;23.256;2022-11-04T13:53:08;94306.81;;;20.07;53.79
5550;BME280;2798;42.716;23.256;2022-11-04T13:55:35;94309.78;;;20.04;53.80
5550;BME280;2798;42.716;23.256;2022-11-04T13:58:03;94316.31;;;19.99;54.14
5550;BME280;2798;42.716;23.256;2022-11-04T14:00:30;94321.53;;;19.99;54.30
5550;BME280;2798;42.716;23.256;2022-11-04T14:03:36;94317.97;;;20.00;54.42
5550;BME280;2798;42.716;23.256;2022-11-04T14:08:10;94318.25;;;20.06;54.33
5550;BME280;2798;42.716;23.256;2022-11-04T14:10:37;94312.84;;;20.07;54.41
5550;BME280;2798;42.716;23.256;2022-11-04T14:16:09;94297.34;;;20.06;54.22
5550;BME280;2798;42.716;23.256;2022-11-04T14:18:40;94303.28;;;20.15;54.47
5550;BME280;2798;42.716;23.256;2022-11-04T14:23:35;94312.38;;;20.19;54.35
5550;BME280;2798;42.716;23.256;2022-11-04T14:26:04;94312.75;;;20.16;54.41
5550;BME280;2798;42.716;23.256;2022-11-04T14:28:31;94310.94;;;20.16;54.39
5550;BME280;2798;42.716;23.256;2022-11-04T14:31:07;94302.66;;;20.12;54.47
5550;BME280;2798;42.716;23.256;2022-11-04T14:33:52;94281.41;;;20.00;54.95
5550;BME280;2798;42.716;23.256;2022-11-04T14:38:43;94312.66;;;20.09;54.67
5550;BME280;2798;42.716;23.256;2022-11-04T14:43:41;94312.41;;;20.04;55.00
5550;BME280;2798;42.716;23.256;2022-11-04T14:46:08;94300.03;;;19.97;55.40
5550;BME280;2798;42.716;23.256;2022-11-04T14:48:45;94298.41;;;19.96;55.88
5550;BME280;2798;42.716;23.256;2022-11-04T14:51:39;94290.94;;;19.93;56.31
5550;BME280;2798;42.716;23.256;2022-11-04T14:54:17;94291.28;;;19.90;56.38
5550;BME280;2798;42.716;23.256;2022-11-04T14:56:44;94285.44;;;19.88;56.50
5550;BME280;2798;42.716;23.256;2022-11-04T14:59:20;94287.78;;;19.83;56.72
5550;BME280;2798;42.716;23.256;2022-11-04T15:01:46;94276.06;;;19.79;56.94
5550;BME280;2798;42.716;23.256;2022-11-04T15:04:22;94287.88;;;19.74;57.24
5550;BME280;2798;42.716;23.256;2022-11-04T15:06:54;94283.19;;;19.70;57.09
5550;BME280;2798;42.716;23.256;2022-11-04T15:09:25;94281.31;;;19.63;57.49
5550;BME280;2798;42.716;23.256;2022-11-04T15:12:12;94280.84;;;19.60;57.33
5550;BME280;2798;42.716;23.256;2022-11-04T15:14:57;94279.91;;;19.52;57.66
5550;BME280;2798;42.716;23.256;2022-11-04T15:17:26;94284.53;;;19.50;58.18
5550;BME280;2798;42.716;23.256;2022-11-04T15:19:55;94283.25;;;19.46;58.60
5550;BME280;2798;42.716;23.256;2022-11-04T15:22:21;94282.00;;;19.42;58.69
5550;BME280;2798;42.716;23.256;2022-11-04T15:24:48;94280.69;;;19.38;58.86
5550;BME280;2798;42.716;23.256;2022-11-04T15:27:27;94278.63;;;19.33;58.90
5550;BME280;2798;42.716;23.256;2022-11-04T15:29:58;94274.94;;;19.27;58.88
5550;BME280;2798;42.716;23.256;2022-11-04T15:32:25;94277.91;;;19.24;58.61
5550;BME280;2798;42.716;23.256;2022-11-04T15:34:51;94275.66;;;19.21;58.90
5550;BME280;2798;42.716;23.256;2022-11-04T15:37:18;94280.41;;;19.18;59.10